Etusivu
METAR-TAF:

METAR-TAF

Lentoasemat :

Deer Park Airport

Deer Park, Washington, Yhdysvallat

Leveyspiiri: 47-58-27N, Pituuspiiri: 117-25-42W, korkeus merenpinnasta: 672 m

Tämänhetkinen sää

Tämä raportti tehtiin 25 minuuttia sitten, kello 16.53 UTC
Tuuli 12 kn koillisesta puuskistuen 24 kn:hen
Lämpötila 15°C
Kosteus 44%
Ilmanpaine 1008 hPa
Näkyvyys: 16.1 km
selkeää

METAR: KDEW 191653Z AUTO 05012G24KT 10SM CLR 15/03 A2977 RMK AO2 SLP080 T01500033

Aika: 10:18 (17:18 UTC)


TAF: puuttuu

Säähavainnot ja -ennusteet yli 4000 lentoasemalta (METAR- ja TAF-raportit).

Käytössä olevat sääasemat on merkitty karttaan keltaisilla ja punaisilla pisteillä.

Aseta hiiri pisteen päälle nähdäksesi sääaseman nimen.

Klikkaa sitten nähdäksesi säähavainnot ja -ennusteet.

Kartan vaihtaminen: klikkaa mustalla rastilla varustettuja vihreitä pisteitä, niin voit zoomata sisään; viivalla varustettua vihreää pistettä, niin voit zoomata ulos tai vihreitä nuolia, niin pääset viereisille kartoille.


METAR-TAF: